createdAt,value
2023-05-23T00:01:55.213Z,93245.81
2023-05-23T00:04:27.329Z,93247.09
2023-05-23T00:06:54.999Z,93253.50
2023-05-23T00:09:22.814Z,93254.44
2023-05-23T00:11:50.218Z,93247.75
2023-05-23T00:14:18.032Z,93245.03
2023-05-23T00:16:46.680Z,93245.28
2023-05-23T00:19:17.143Z,93245.66
2023-05-23T00:21:51.163Z,93243.19
2023-05-23T00:24:20.605Z,93245.28
2023-05-23T00:26:48.221Z,93245.69
2023-05-23T00:29:16.979Z,93237.06
2023-05-23T00:31:46.894Z,93246.47
2023-05-23T00:34:20.032Z,93245.19
2023-05-23T00:36:48.147Z,93239.22
2023-05-23T00:39:24.926Z,93245.88
2023-05-23T00:41:53.293Z,93236.81
2023-05-23T00:44:22.109Z,93235.56
2023-05-23T00:46:56.692Z,93239.44
2023-05-23T00:49:25.176Z,93234.34
2023-05-23T00:51:52.862Z,93239.16
2023-05-23T00:54:31.663Z,93244.28
2023-05-23T00:56:59.818Z,93235.66
2023-05-23T00:59:27.569Z,93235.91
2023-05-23T01:01:57.226Z,93249.25
2023-05-23T01:04:28.589Z,93239.50
2023-05-23T01:06:56.787Z,93241.09
2023-05-23T01:09:26.177Z,93246.47
2023-05-23T01:12:06.958Z,93246.88
2023-05-23T01:14:46.718Z,93243.19
2023-05-23T01:17:22.224Z,93251.34
2023-05-23T01:20:01.458Z,93244.25
2023-05-23T01:22:48.880Z,93243.38
2023-05-23T01:25:40.350Z,93240.97
2023-05-23T01:28:12.860Z,93240.78
2023-05-23T01:30:42.279Z,93240.97
2023-05-23T01:33:12.066Z,93239.72
2023-05-23T01:35:40.483Z,93234.31
2023-05-23T01:38:08.393Z,93235.00
2023-05-23T01:40:36.504Z,93245.09
2023-05-23T01:43:04.602Z,93241.53
2023-05-23T01:45:32.704Z,93230.72
2023-05-23T01:48:02.679Z,93237.78
2023-05-23T01:50:32.011Z,93238.00
2023-05-23T01:53:00.544Z,93237.44
2023-05-23T01:55:29.039Z,93240.94
2023-05-23T01:57:57.917Z,93242.75
2023-05-23T02:00:25.875Z,93233.41
2023-05-23T02:02:53.664Z,93237.84
2023-05-23T02:05:21.600Z,93229.28
2023-05-23T02:07:49.009Z,93240.44
2023-05-23T02:10:18.244Z,93240.87
2023-05-23T02:12:45.953Z,93240.87
2023-05-23T02:15:13.490Z,93243.97
2023-05-23T02:17:41.678Z,93238.66
2023-05-23T02:20:10.434Z,93244.41
2023-05-23T02:22:38.919Z,93241.09
2023-05-23T02:25:07.037Z,93241.25
2023-05-23T02:27:34.366Z,93233.72
2023-05-23T02:30:02.323Z,93233.59
2023-05-23T02:32:31.265Z,93239.78
2023-05-23T02:34:59.824Z,93237.06
2023-05-23T02:37:27.456Z,93234.53
2023-05-23T02:39:54.892Z,93243.44
2023-05-23T02:42:22.664Z,93237.88
2023-05-23T02:44:50.721Z,93231.84
2023-05-23T02:47:18.389Z,93228.81
2023-05-23T02:49:49.141Z,93229.62
2023-05-23T02:52:18.158Z,93238.13
2023-05-23T02:54:45.963Z,93232.63
2023-05-23T02:57:13.852Z,93231.84
2023-05-23T02:59:43.213Z,93238.72
2023-05-23T03:02:11.135Z,93226.28
2023-05-23T03:04:38.765Z,93227.16
2023-05-23T03:07:11.581Z,93225.31
2023-05-23T03:09:44.612Z,93221.16
2023-05-23T03:12:13.403Z,93225.06
2023-05-23T03:14:40.741Z,93223.41
2023-05-23T03:17:08.107Z,93218.31
2023-05-23T03:19:36.783Z,93223.88
2023-05-23T03:22:04.454Z,93227.06
2023-05-23T03:24:42.618Z,93220.72
2023-05-23T03:27:11.799Z,93228.47
2023-05-23T03:29:39.302Z,93236.56
2023-05-23T03:32:07.408Z,93233.91
2023-05-23T03:34:36.708Z,93235.22
2023-05-23T03:37:04.427Z,93239.28
2023-05-23T03:39:32.004Z,93230.06
2023-05-23T03:41:59.815Z,93241.97
2023-05-23T03:44:27.602Z,93245.22
2023-05-23T03:46:55.066Z,93245.53
2023-05-23T03:49:22.784Z,93247.84
2023-05-23T03:51:51.226Z,93251.09
2023-05-23T03:54:19.315Z,93245.41
2023-05-23T03:56:47.021Z,93242.00
2023-05-23T03:59:15.557Z,93247.78
2023-05-23T04:01:43.069Z,93241.94
2023-05-23T04:04:11.039Z,93236.78
2023-05-23T04:07:03.104Z,93251.47
2023-05-23T04:09:35.002Z,93244.03
2023-05-23T04:12:03.835Z,93245.69
2023-05-23T04:14:36.484Z,93235.59
2023-05-23T04:17:03.959Z,93249.06
2023-05-23T04:22:18.463Z,93250.97
2023-05-23T04:24:47.494Z,93245.78
2023-05-23T04:27:15.382Z,93253.72
2023-05-23T04:29:44.763Z,93248.66
2023-05-23T04:32:18.721Z,93250.72
2023-05-23T04:34:51.410Z,93261.16
2023-05-23T04:37:28.381Z,93254.56
2023-05-23T04:40:19.479Z,93255.31
2023-05-23T04:42:51.653Z,93254.47
2023-05-23T04:45:33.008Z,93259.53
2023-05-23T04:48:03.717Z,93254.75
2023-05-23T04:50:33.524Z,93251.75
2023-05-23T04:53:07.474Z,93254.28
2023-05-23T04:55:37.698Z,93251.03
2023-05-23T04:58:08.180Z,93255.63
2023-05-23T05:00:36.417Z,93254.13
2023-05-23T05:03:06.816Z,93255.47
2023-05-23T05:05:34.756Z,93258.31
2023-05-23T05:08:06.325Z,93257.81
2023-05-23T05:10:38.843Z,93260.59
2023-05-23T05:13:09.737Z,93260.38
2023-05-23T05:15:40.401Z,93256.41
2023-05-23T05:18:08.821Z,93259.34
2023-05-23T05:20:36.373Z,93265.78
2023-05-23T05:23:03.995Z,93264.84
2023-05-23T05:25:33.109Z,93263.06
2023-05-23T05:28:10.517Z,93269.75
2023-05-23T05:30:40.572Z,93260.03
2023-05-23T05:33:08.438Z,93269.28
2023-05-23T05:35:36.104Z,93265.31
2023-05-23T05:38:05.119Z,93264.59
2023-05-23T05:40:33.007Z,93262.03
2023-05-23T05:43:00.913Z,93262.59
2023-05-23T05:45:28.784Z,93254.75
2023-05-23T05:47:56.295Z,93262.31
2023-05-23T05:50:24.034Z,93254.13
2023-05-23T05:52:51.814Z,93260.44
2023-05-23T05:55:19.184Z,93260.19
2023-05-23T05:57:46.853Z,93261.50
2023-05-23T06:00:15.814Z,93260.50
2023-05-23T06:02:55.341Z,93262.47
2023-05-23T06:05:28.206Z,93265.66
2023-05-23T06:07:56.073Z,93262.81
2023-05-23T06:10:27.185Z,93263.41
2023-05-23T06:12:55.255Z,93256.16
2023-05-23T06:15:22.894Z,93270.94
2023-05-23T06:17:52.077Z,93265.31
2023-05-23T06:20:31.944Z,93258.47
2023-05-23T06:23:05.749Z,93259.06
2023-05-23T06:25:33.591Z,93260.72
2023-05-23T06:28:01.685Z,93253.72
2023-05-23T06:30:30.670Z,93259.84
2023-05-23T06:32:58.201Z,93252.56
2023-05-23T06:35:26.158Z,93250.50
2023-05-23T06:37:54.091Z,93243.13
2023-05-23T06:40:21.722Z,93249.69
2023-05-23T06:43:05.367Z,93248.94
2023-05-23T06:45:38.769Z,93245.63
2023-05-23T06:48:07.227Z,93246.28
2023-05-23T06:50:35.260Z,93248.56
2023-05-23T06:53:03.386Z,93246.00
2023-05-23T06:55:33.037Z,93237.56
2023-05-23T06:58:04.164Z,93233.06
2023-05-23T07:00:33.160Z,93241.50
2023-05-23T07:03:03.483Z,93238.09
2023-05-23T07:05:40.058Z,93236.78
2023-05-23T07:08:15.272Z,93229.66
2023-05-23T07:10:46.931Z,93233.66
2023-05-23T07:13:22.302Z,93234.19
2023-05-23T07:15:50.288Z,93231.56
2023-05-23T07:18:19.510Z,93236.81
2023-05-23T07:20:51.553Z,93231.03
2023-05-23T07:23:31.046Z,93221.00
2023-05-23T07:26:03.443Z,93224.19
2023-05-23T07:28:33.354Z,93218.37
2023-05-23T07:31:01.116Z,93210.50
2023-05-23T07:33:30.044Z,93214.41
2023-05-23T07:36:01.569Z,93211.47
2023-05-23T07:38:29.506Z,93209.34
2023-05-23T07:41:10.083Z,93214.38
2023-05-23T07:43:39.356Z,93203.16
2023-05-23T07:46:07.400Z,93199.81
2023-05-23T07:48:35.508Z,93202.97
2023-05-23T07:51:04.286Z,93195.63
2023-05-23T07:53:32.136Z,93201.06
2023-05-23T07:55:59.944Z,93202.37
2023-05-23T07:58:28.310Z,93201.44
2023-05-23T08:01:24.585Z,93197.22
2023-05-23T08:04:01.734Z,93193.38
2023-05-23T08:06:31.868Z,93191.59
2023-05-23T08:09:14.181Z,93196.56
2023-05-23T08:11:45.729Z,93187.44
2023-05-23T08:14:13.433Z,93181.75
2023-05-23T08:16:42.186Z,93189.53
2023-05-23T08:19:12.358Z,93188.94
2023-05-23T08:21:43.435Z,93198.34
2023-05-23T08:24:14.923Z,93194.44
2023-05-23T08:26:46.561Z,93191.44
2023-05-23T08:29:17.226Z,93193.19
2023-05-23T08:31:45.810Z,93183.41
2023-05-23T08:34:16.308Z,93192.25
2023-05-23T08:36:45.628Z,93176.22
2023-05-23T08:39:26.210Z,93189.28
2023-05-23T08:41:57.126Z,93185.66
2023-05-23T08:44:25.862Z,93193.91
2023-05-23T08:46:54.359Z,93197.16
2023-05-23T08:49:23.329Z,93192.03
2023-05-23T08:51:56.363Z,93195.06
2023-05-23T08:54:25.684Z,93185.47
2023-05-23T08:56:53.478Z,93186.00
2023-05-23T08:59:22.746Z,93189.44
2023-05-23T09:01:52.667Z,93187.22
2023-05-23T09:04:20.606Z,93182.03
2023-05-23T09:06:55.821Z,93184.78
2023-05-23T09:09:25.769Z,93180.41
2023-05-23T09:11:57.826Z,93174.09
2023-05-23T09:14:32.371Z,93179.06
2023-05-23T09:17:06.783Z,93170.53
2023-05-23T09:19:46.277Z,93168.12
2023-05-23T09:22:36.746Z,93167.66
2023-05-23T09:25:10.490Z,93163.91
2023-05-23T09:27:38.596Z,93162.47
2023-05-23T09:30:11.294Z,93172.97
2023-05-23T09:32:39.282Z,93166.84
2023-05-23T09:35:14.203Z,93171.78
2023-05-23T09:37:47.212Z,93162.72
2023-05-23T09:40:16.779Z,93158.84
2023-05-23T09:42:46.895Z,93160.84
2023-05-23T09:45:17.059Z,93159.97
2023-05-23T09:47:54.171Z,93156.06
2023-05-23T09:50:23.338Z,93151.53
2023-05-23T09:52:54.199Z,93146.72
2023-05-23T09:55:25.690Z,93146.34
2023-05-23T09:57:59.000Z,93148.50
2023-05-23T10:00:28.995Z,93149.91
2023-05-23T10:03:14.872Z,93143.03
2023-05-23T10:05:49.807Z,93141.06
2023-05-23T10:08:29.910Z,93135.13
2023-05-23T10:11:15.196Z,93140.19
2023-05-23T10:13:56.137Z,93134.75
2023-05-23T10:16:55.913Z,93142.16
2023-05-23T10:19:41.619Z,93120.00
2023-05-23T10:22:17.229Z,93128.09
2023-05-23T10:24:53.717Z,93126.53
2023-05-23T10:27:21.492Z,93134.13
2023-05-23T10:29:52.532Z,93125.50
2023-05-23T10:32:21.182Z,93125.63
2023-05-23T10:35:04.373Z,93118.87
2023-05-23T10:37:53.861Z,93110.41
2023-05-23T10:40:40.653Z,93117.03
2023-05-23T10:43:39.765Z,93113.09
2023-05-23T10:46:24.818Z,93120.06
2023-05-23T10:48:57.802Z,93094.38
2023-05-23T10:51:41.890Z,93116.00
2023-05-23T10:54:17.349Z,93105.81
2023-05-23T10:56:45.836Z,93102.84
2023-05-23T10:59:26.584Z,93101.72
2023-05-23T11:01:56.616Z,93109.38
2023-05-23T11:04:29.586Z,93108.19
2023-05-23T11:06:58.102Z,93105.38
2023-05-23T11:09:26.075Z,93109.19
2023-05-23T11:11:55.257Z,93115.47
2023-05-23T11:14:55.162Z,93118.25
2023-05-23T11:17:35.458Z,93114.09
2023-05-23T11:20:06.252Z,93113.97
2023-05-23T11:22:35.201Z,93106.72
2023-05-23T11:25:08.033Z,93107.50
2023-05-23T11:27:40.969Z,93102.16
2023-05-23T11:30:10.278Z,93095.78
2023-05-23T11:32:38.044Z,93092.62
2023-05-23T11:35:07.887Z,93102.19
2023-05-23T11:37:36.174Z,93097.88
2023-05-23T11:40:25.947Z,93091.25
2023-05-23T11:42:57.240Z,93091.91
2023-05-23T11:45:25.142Z,93088.00
2023-05-23T11:47:53.359Z,93085.59
2023-05-23T11:50:21.180Z,93090.31
2023-05-23T11:52:52.169Z,93091.00
2023-05-23T11:55:21.567Z,93086.25
2023-05-23T11:57:50.631Z,93086.78
2023-05-23T12:00:19.649Z,93081.94
2023-05-23T12:02:49.062Z,93078.88
2023-05-23T12:05:16.963Z,93081.34
2023-05-23T12:07:49.822Z,93079.47
2023-05-23T12:10:18.695Z,93069.94
2023-05-23T12:12:46.201Z,93084.69
2023-05-23T12:15:14.062Z,93062.16
2023-05-23T12:17:48.778Z,93068.44
2023-05-23T12:20:16.458Z,93066.53
2023-05-23T12:22:44.366Z,93055.81
2023-05-23T12:25:12.103Z,93056.72
2023-05-23T12:27:42.765Z,93035.97
2023-05-23T12:30:17.446Z,93041.00
2023-05-23T12:32:46.968Z,93043.31
2023-05-23T12:35:16.318Z,93043.31
2023-05-23T12:37:47.483Z,93046.34
2023-05-23T12:40:19.541Z,93052.94
2023-05-23T12:42:55.283Z,93041.00
2023-05-23T12:45:25.132Z,93037.63
2023-05-23T12:47:54.104Z,93042.53
2023-05-23T12:50:22.351Z,93033.84
2023-05-23T12:52:50.125Z,93028.47
2023-05-23T12:55:17.607Z,93024.34
2023-05-23T12:57:45.238Z,93023.50
2023-05-23T13:00:13.527Z,93026.16
2023-05-23T13:02:41.496Z,93016.78
2023-05-23T13:05:09.563Z,93018.34
2023-05-23T13:07:38.057Z,93010.09
2023-05-23T13:10:06.397Z,93011.09
2023-05-23T13:12:34.753Z,93007.84
2023-05-23T13:15:02.597Z,93010.91
2023-05-23T13:17:31.944Z,93016.72
2023-05-23T13:19:59.317Z,93015.44
2023-05-23T13:22:27.249Z,93012.06
2023-05-23T13:24:54.676Z,93009.72
2023-05-23T13:27:22.116Z,93004.19
2023-05-23T13:29:49.901Z,92996.75
2023-05-23T13:32:17.691Z,93000.56
2023-05-23T13:34:45.175Z,93017.44
2023-05-23T13:37:12.955Z,93008.97
2023-05-23T13:39:40.438Z,93013.56
2023-05-23T13:42:08.419Z,93012.56
2023-05-23T13:44:36.693Z,93014.38
2023-05-23T13:47:14.599Z,93019.09
2023-05-23T13:49:43.234Z,93027.03
2023-05-23T13:52:10.899Z,93015.69
2023-05-23T13:54:38.612Z,93021.28
2023-05-23T13:57:07.024Z,93020.75
2023-05-23T13:59:34.576Z,93015.41
2023-05-23T14:02:02.186Z,93018.19
2023-05-23T14:04:29.964Z,93009.16
2023-05-23T14:06:57.279Z,93013.06
2023-05-23T14:09:24.753Z,93011.69
2023-05-23T14:11:52.588Z,93004.09
2023-05-23T14:14:20.123Z,93017.00
2023-05-23T14:16:47.790Z,93003.97
2023-05-23T14:19:15.569Z,93002.50
2023-05-23T14:21:44.967Z,93002.41
2023-05-23T14:24:12.695Z,93000.78
2023-05-23T14:26:40.381Z,93006.28
2023-05-23T14:29:07.969Z,93000.28
2023-05-23T14:31:35.832Z,93007.41
2023-05-23T14:34:03.770Z,93001.47
2023-05-23T14:36:31.927Z,93008.44
2023-05-23T14:38:59.321Z,93003.47
2023-05-23T14:41:29.130Z,93007.47
2023-05-23T14:43:56.679Z,93003.31
2023-05-23T14:46:24.230Z,92999.25
2023-05-23T14:48:52.052Z,93009.06
2023-05-23T14:51:31.099Z,93001.12
2023-05-23T14:54:02.712Z,93003.37
2023-05-23T14:56:30.118Z,92996.47
2023-05-23T14:58:57.740Z,92998.09
2023-05-23T15:01:25.533Z,92990.03
2023-05-23T15:03:53.115Z,92999.19
2023-05-23T15:06:20.578Z,92994.25
2023-05-23T15:08:48.260Z,92997.00
2023-05-23T15:11:15.725Z,92995.72
2023-05-23T15:13:43.086Z,92990.38
2023-05-23T15:16:10.942Z,92982.72
2023-05-23T15:18:41.901Z,92988.47
2023-05-23T15:21:09.851Z,92982.94
2023-05-23T15:23:37.740Z,92988.34
2023-05-23T15:26:05.084Z,92980.72
2023-05-23T15:28:32.524Z,92984.56
2023-05-23T15:31:00.414Z,92982.56
2023-05-23T15:33:27.844Z,92979.41
2023-05-23T15:35:55.407Z,92979.44
2023-05-23T15:38:23.092Z,92975.84
2023-05-23T15:40:52.779Z,92976.31
2023-05-23T15:43:20.827Z,92972.84
2023-05-23T15:45:50.147Z,92980.94
2023-05-23T15:48:17.883Z,92978.16
2023-05-23T15:50:45.508Z,92978.16
2023-05-23T15:53:13.424Z,92972.75
2023-05-23T15:55:42.654Z,92975.47
2023-05-23T15:58:11.423Z,92972.25
2023-05-23T16:00:39.576Z,92972.19
2023-05-23T16:03:07.359Z,92972.87
2023-05-23T16:05:34.790Z,92977.25
2023-05-23T16:08:02.395Z,92983.59
2023-05-23T16:10:30.151Z,92976.88
2023-05-23T16:12:57.516Z,92977.81
2023-05-23T16:15:25.021Z,92975.41
2023-05-23T16:17:52.867Z,92978.84
2023-05-23T16:20:20.318Z,92978.69
2023-05-23T16:22:47.688Z,92981.47
2023-05-23T16:25:15.388Z,92986.00
2023-05-23T16:27:42.873Z,92986.78
2023-05-23T16:30:10.801Z,92983.28
2023-05-23T16:32:38.629Z,92992.28
2023-05-23T16:35:06.584Z,93001.03
2023-05-23T16:37:33.984Z,92996.00
2023-05-23T16:40:01.735Z,92998.94
2023-05-23T16:42:29.264Z,92999.34
2023-05-23T16:44:57.035Z,93008.91
2023-05-23T16:47:24.922Z,93006.81
2023-05-23T16:49:52.360Z,93017.72
2023-05-23T16:52:19.803Z,93013.63
2023-05-23T16:54:47.558Z,93018.25
2023-05-23T16:57:14.947Z,93021.81
2023-05-23T16:59:42.786Z,93018.78
2023-05-23T17:02:14.088Z,93024.63
2023-05-23T17:04:41.833Z,93023.75
2023-05-23T17:07:09.737Z,93025.72
2023-05-23T17:09:37.445Z,93017.09
2023-05-23T17:12:05.283Z,93024.81
2023-05-23T17:14:32.732Z,93023.25
2023-05-23T17:17:00.915Z,93027.22
2023-05-23T17:19:28.831Z,93024.25
2023-05-23T17:21:56.546Z,93031.31
2023-05-23T17:24:24.288Z,93030.62
2023-05-23T17:26:51.739Z,93035.75
2023-05-23T17:29:20.589Z,93036.84
2023-05-23T17:31:48.550Z,93040.72
2023-05-23T17:34:16.637Z,93042.44
2023-05-23T17:36:44.060Z,93036.44
2023-05-23T17:39:11.821Z,93034.22
2023-05-23T17:41:39.214Z,93044.00
2023-05-23T17:44:06.819Z,93044.03
2023-05-23T17:46:34.570Z,93039.38
2023-05-23T17:49:02.032Z,93045.72
2023-05-23T17:51:29.389Z,93046.62
2023-05-23T17:54:02.712Z,93056.75
2023-05-23T17:56:30.955Z,93051.19
2023-05-23T17:58:58.708Z,93049.44
2023-05-23T18:01:27.287Z,93053.00
2023-05-23T18:03:55.539Z,93057.63
2023-05-23T18:06:23.161Z,93062.53
2023-05-23T18:08:53.889Z,93070.88
2023-05-23T18:11:23.365Z,93073.88
2023-05-23T18:13:51.993Z,93080.78
2023-05-23T18:16:19.939Z,93083.09
2023-05-23T18:18:48.247Z,93080.00
2023-05-23T18:21:18.064Z,93080.59
2023-05-23T18:23:45.680Z,93082.97
2023-05-23T18:26:13.575Z,93086.94
2023-05-23T18:28:41.350Z,93091.56
2023-05-23T18:31:08.720Z,93101.38
2023-05-23T18:33:36.934Z,93105.94
2023-05-23T18:36:04.871Z,93111.06
2023-05-23T18:38:32.382Z,93113.53
2023-05-23T18:41:00.466Z,93117.50
2023-05-23T18:43:28.125Z,93116.41
2023-05-23T18:45:55.552Z,93128.94
2023-05-23T18:48:23.356Z,93137.16
2023-05-23T18:50:50.759Z,93133.09
2023-05-23T18:53:18.193Z,93134.91
2023-05-23T18:55:46.037Z,93135.03
2023-05-23T18:58:13.518Z,93149.81
2023-05-23T19:00:41.174Z,93145.16
2023-05-23T19:03:09.157Z,93147.34
2023-05-23T19:05:36.991Z,93157.94
2023-05-23T19:08:04.396Z,93153.41
2023-05-23T19:10:32.257Z,93162.97
2023-05-23T19:12:59.694Z,93168.66
2023-05-23T19:15:27.084Z,93171.91
2023-05-23T19:17:54.814Z,93189.34
2023-05-23T19:20:22.294Z,93191.66
2023-05-23T19:22:52.244Z,93189.19
2023-05-23T19:25:21.795Z,93192.19
2023-05-23T19:27:49.296Z,93201.47
2023-05-23T19:30:16.948Z,93208.91
2023-05-23T19:32:44.736Z,93203.09
2023-05-23T19:35:14.733Z,93207.53
2023-05-23T19:37:43.881Z,93210.44
2023-05-23T19:40:12.252Z,93215.50
2023-05-23T19:42:39.698Z,93214.06
2023-05-23T19:45:07.906Z,93219.94
2023-05-23T19:47:36.268Z,93223.13
2023-05-23T19:50:03.879Z,93228.91
2023-05-23T19:52:31.232Z,93225.75
2023-05-23T19:54:59.666Z,93226.28
2023-05-23T19:57:29.321Z,93227.88
2023-05-23T19:59:57.355Z,93234.19
2023-05-23T20:02:25.269Z,93231.56
2023-05-23T20:04:53.107Z,93226.22
2023-05-23T20:07:20.462Z,93234.97
2023-05-23T20:09:47.976Z,93242.09
2023-05-23T20:12:15.845Z,93239.97
2023-05-23T20:14:43.312Z,93231.31
2023-05-23T20:17:10.896Z,93239.19
2023-05-23T20:19:41.468Z,93239.19
2023-05-23T20:22:08.866Z,93230.22
2023-05-23T20:24:36.431Z,93241.06
2023-05-23T20:27:04.305Z,93238.94
2023-05-23T20:29:34.646Z,93242.59
2023-05-23T20:32:02.464Z,93238.88
2023-05-23T20:34:30.262Z,93240.69
2023-05-23T20:36:57.749Z,93241.16
2023-05-23T20:39:25.214Z,93241.97
2023-05-23T20:41:53.857Z,93237.22
2023-05-23T20:44:21.219Z,93236.19
2023-05-23T20:46:48.717Z,93240.34
2023-05-23T20:49:16.844Z,93239.56
2023-05-23T20:51:44.417Z,93242.25
2023-05-23T20:54:12.977Z,93243.78
2023-05-23T20:56:41.003Z,93235.94
2023-05-23T20:59:08.484Z,93245.41
2023-05-23T21:01:36.080Z,93243.56
2023-05-23T21:04:04.034Z,93243.75
2023-05-23T21:06:32.765Z,93238.69
2023-05-23T21:09:00.188Z,93248.09
2023-05-23T21:11:28.135Z,93254.87
2023-05-23T21:13:55.593Z,93251.38
2023-05-23T21:16:23.053Z,93251.75
2023-05-23T21:18:50.928Z,93245.78
2023-05-23T21:21:18.447Z,93247.87
2023-05-23T21:23:45.881Z,93255.03
2023-05-23T21:26:13.682Z,93254.31
2023-05-23T21:28:41.312Z,93258.06
2023-05-23T21:31:09.116Z,93250.75
2023-05-23T21:33:36.862Z,93260.78
2023-05-23T21:36:04.354Z,93265.81
2023-05-23T21:38:31.951Z,93265.94
2023-05-23T21:40:59.826Z,93266.94
2023-05-23T21:43:27.290Z,93262.59
2023-05-23T21:45:54.769Z,93263.63
2023-05-23T21:48:22.503Z,93268.03
2023-05-23T21:50:49.909Z,93271.19
2023-05-23T21:53:17.403Z,93270.13
2023-05-23T21:55:45.780Z,93261.59
2023-05-23T21:58:13.204Z,93270.03
2023-05-23T22:00:40.775Z,93264.78
2023-05-23T22:03:08.605Z,93271.59
2023-05-23T22:05:36.090Z,93271.59
2023-05-23T22:08:03.824Z,93272.44
2023-05-23T22:10:31.875Z,93272.19
2023-05-23T22:12:59.254Z,93268.72
2023-05-23T22:15:26.749Z,93274.56
2023-05-23T22:17:54.594Z,93279.66
2023-05-23T22:20:23.518Z,93280.72
2023-05-23T22:22:51.148Z,93279.56
2023-05-23T22:25:18.940Z,93282.31
2023-05-23T22:27:46.326Z,93280.03
2023-05-23T22:30:14.194Z,93276.06
2023-05-23T22:32:42.065Z,93283.81
2023-05-23T22:35:09.841Z,93279.78
2023-05-23T22:37:37.139Z,93280.81
2023-05-23T22:40:05.731Z,93278.44
2023-05-23T22:42:33.099Z,93283.38
2023-05-23T22:45:00.372Z,93274.56
2023-05-23T22:47:29.439Z,93273.25
2023-05-23T22:49:56.854Z,93269.84
2023-05-23T22:52:24.128Z,93273.31
2023-05-23T22:54:51.992Z,93275.50
2023-05-23T22:57:19.316Z,93265.03
2023-05-23T22:59:46.709Z,93268.38
2023-05-23T23:02:14.497Z,93263.75
2023-05-23T23:04:41.928Z,93272.69
2023-05-23T23:07:09.278Z,93264.84
2023-05-23T23:09:37.222Z,93264.94
2023-05-23T23:12:04.771Z,93257.47
2023-05-23T23:14:32.138Z,93265.31
2023-05-23T23:16:59.848Z,93262.50
2023-05-23T23:19:29.884Z,93253.69
2023-05-23T23:21:57.171Z,93251.06
2023-05-23T23:24:24.871Z,93254.59
2023-05-23T23:26:52.309Z,93256.81
2023-05-23T23:29:19.696Z,93266.25
2023-05-23T23:31:47.424Z,93261.09
2023-05-23T23:34:14.837Z,93260.09
2023-05-23T23:36:42.259Z,93259.16
2023-05-23T23:39:09.910Z,93254.13
2023-05-23T23:41:37.269Z,93252.94
2023-05-23T23:44:04.626Z,93254.34
2023-05-23T23:46:32.448Z,93243.38
2023-05-23T23:48:59.969Z,93247.97
2023-05-23T23:51:27.369Z,93245.53
2023-05-23T23:53:55.207Z,93245.59
2023-05-23T23:56:23.022Z,93241.78
2023-05-23T23:58:51.118Z,93243.13
